sensor_id;sensor_type;location;lat;lon;timestamp;temperature;humidity
22852;DHT22;11592;45.460;9.240;2023-03-01T00:01:08;6.50;99.90
22852;DHT22;11592;45.460;9.240;2023-03-01T00:03:35;6.50;99.90
22852;DHT22;11592;45.460;9.240;2023-03-01T00:06:02;6.60;99.90
22852;DHT22;11592;45.460;9.240;2023-03-01T00:08:29;6.60;99.90
22852;DHT22;11592;45.460;9.240;2023-03-01T00:13:39;6.50;99.90
22852;DHT22;11592;45.460;9.240;2023-03-01T00:16:10;6.50;99.90
22852;DHT22;11592;45.460;9.240;2023-03-01T00:18:37;6.60;99.90
22852;DHT22;11592;45.460;9.240;2023-03-01T00:21:04;6.70;99.90
22852;DHT22;11592;45.460;9.240;2023-03-01T00:23:31;6.70;99.90
22852;DHT22;11592;45.460;9.240;2023-03-01T00:26:00;6.60;99.90
22852;DHT22;11592;45.460;9.240;2023-03-01T00:28:27;6.50;99.90
22852;DHT22;11592;45.460;9.240;2023-03-01T00:30:54;6.60;99.90
22852;DHT22;11592;45.460;9.240;2023-03-01T00:33:20;6.50;99.90
22852;DHT22;11592;45.460;9.240;2023-03-01T00:35:47;6.50;99.90
22852;DHT22;11592;45.460;9.240;2023-03-01T00:38:14;6.40;99.90
22852;DHT22;11592;45.460;9.240;2023-03-01T00:40:41;6.40;99.90
22852;DHT22;11592;45.460;9.240;2023-03-01T00:43:08;6.50;99.90
22852;DHT22;11592;45.460;9.240;2023-03-01T00:45:35;6.30;99.90
22852;DHT22;11592;45.460;9.240;2023-03-01T00:48:01;6.30;99.90
22852;DHT22;11592;45.460;9.240;2023-03-01T00:50:28;6.50;99.90
22852;DHT22;11592;45.460;9.240;2023-03-01T00:52:55;6.50;99.90
22852;DHT22;11592;45.460;9.240;2023-03-01T00:55:23;6.50;99.90
22852;DHT22;11592;45.460;9.240;2023-03-01T00:57:50;6.50;99.90
22852;DHT22;11592;45.460;9.240;2023-03-01T01:00:19;6.60;99.90
22852;DHT22;11592;45.460;9.240;2023-03-01T01:02:46;6.70;99.90
22852;DHT22;11592;45.460;9.240;2023-03-01T01:05:14;6.60;99.90
22852;DHT22;11592;45.460;9.240;2023-03-01T01:07:41;6.50;99.90
22852;DHT22;11592;45.460;9.240;2023-03-01T01:10:08;6.40;99.90
22852;DHT22;11592;45.460;9.240;2023-03-01T01:12:39;6.50;99.90
22852;DHT22;11592;45.460;9.240;2023-03-01T01:15:06;6.40;99.90
22852;DHT22;11592;45.460;9.240;2023-03-01T01:17:33;6.40;99.90
22852;DHT22;11592;45.460;9.240;2023-03-01T01:20:00;6.40;99.90
22852;DHT22;11592;45.460;9.240;2023-03-01T01:22:27;6.40;99.90
22852;DHT22;11592;45.460;9.240;2023-03-01T01:24:53;6.40;99.90
22852;DHT22;11592;45.460;9.240;2023-03-01T01:27:20;6.30;99.90
22852;DHT22;11592;45.460;9.240;2023-03-01T01:29:47;6.30;99.90
22852;DHT22;11592;45.460;9.240;2023-03-01T01:32:14;6.30;99.90
22852;DHT22;11592;45.460;9.240;2023-03-01T01:34:41;6.30;99.90
22852;DHT22;11592;45.460;9.240;2023-03-01T01:37:07;6.30;99.90
22852;DHT22;11592;45.460;9.240;2023-03-01T01:39:35;6.30;99.90
22852;DHT22;11592;45.460;9.240;2023-03-01T01:42:02;6.40;99.90
22852;DHT22;11592;45.460;9.240;2023-03-01T01:44:29;6.40;99.90
22852;DHT22;11592;45.460;9.240;2023-03-01T01:47:07;6.40;99.90
22852;DHT22;11592;45.460;9.240;2023-03-01T01:49:42;6.40;99.90
22852;DHT22;11592;45.460;9.240;2023-03-01T01:52:14;6.50;99.90
22852;DHT22;11592;45.460;9.240;2023-03-01T01:55:11;6.50;99.90
22852;DHT22;11592;45.460;9.240;2023-03-01T01:57:44;6.50;99.90
22852;DHT22;11592;45.460;9.240;2023-03-01T02:00:14;6.50;99.90
22852;DHT22;11592;45.460;9.240;2023-03-01T02:02:42;6.40;99.90
22852;DHT22;11592;45.460;9.240;2023-03-01T02:07:56;6.50;99.90
22852;DHT22;11592;45.460;9.240;2023-03-01T02:10:25;6.40;99.90
22852;DHT22;11592;45.460;9.240;2023-03-01T02:12:53;6.30;99.90
22852;DHT22;11592;45.460;9.240;2023-03-01T02:15:20;6.20;99.90
22852;DHT22;11592;45.460;9.240;2023-03-01T02:17:47;6.20;99.90
22852;DHT22;11592;45.460;9.240;2023-03-01T02:23:13;6.30;99.90
22852;DHT22;11592;45.460;9.240;2023-03-01T02:25:44;6.30;99.90
22852;DHT22;11592;45.460;9.240;2023-03-01T02:30:44;6.30;99.90
22852;DHT22;11592;45.460;9.240;2023-03-01T02:33:31;6.20;99.90
22852;DHT22;11592;45.460;9.240;2023-03-01T02:36:01;6.20;99.90
22852;DHT22;11592;45.460;9.240;2023-03-01T02:38:30;6.20;99.90
22852;DHT22;11592;45.460;9.240;2023-03-01T02:40:57;6.10;99.90
22852;DHT22;11592;45.460;9.240;2023-03-01T02:43:29;6.00;99.90
22852;DHT22;11592;45.460;9.240;2023-03-01T02:46:05;5.90;99.90
22852;DHT22;11592;45.460;9.240;2023-03-01T02:51:42;5.90;99.90
22852;DHT22;11592;45.460;9.240;2023-03-01T02:57:30;5.80;99.90
22852;DHT22;11592;45.460;9.240;2023-03-01T03:00:01;5.70;99.90
22852;DHT22;11592;45.460;9.240;2023-03-01T03:02:34;5.60;99.90
22852;DHT22;11592;45.460;9.240;2023-03-01T03:05:10;5.60;99.90
22852;DHT22;11592;45.460;9.240;2023-03-01T03:07:40;5.70;99.90
22852;DHT22;11592;45.460;9.240;2023-03-01T03:10:10;5.70;99.90
22852;DHT22;11592;45.460;9.240;2023-03-01T03:12:38;5.60;99.90
22852;DHT22;11592;45.460;9.240;2023-03-01T03:15:06;5.50;99.90
22852;DHT22;11592;45.460;9.240;2023-03-01T03:17:40;5.60;99.90
22852;DHT22;11592;45.460;9.240;2023-03-01T03:20:10;5.50;99.90
22852;DHT22;11592;45.460;9.240;2023-03-01T03:22:41;5.40;99.90
22852;DHT22;11592;45.460;9.240;2023-03-01T03:25:08;5.50;99.90
22852;DHT22;11592;45.460;9.240;2023-03-01T03:27:38;5.60;99.90
22852;DHT22;11592;45.460;9.240;2023-03-01T03:30:07;5.60;99.90
22852;DHT22;11592;45.460;9.240;2023-03-01T03:32:39;5.60;99.90
22852;DHT22;11592;45.460;9.240;2023-03-01T03:35:08;5.70;99.90
22852;DHT22;11592;45.460;9.240;2023-03-01T03:37:37;5.50;99.90
22852;DHT22;11592;45.460;9.240;2023-03-01T03:40:23;5.50;99.90
22852;DHT22;11592;45.460;9.240;2023-03-01T03:42:49;5.50;99.90
22852;DHT22;11592;45.460;9.240;2023-03-01T03:45:17;5.50;99.90
22852;DHT22;11592;45.460;9.240;2023-03-01T03:47:44;5.30;99.90
22852;DHT22;11592;45.460;9.240;2023-03-01T03:50:13;5.30;99.90
22852;DHT22;11592;45.460;9.240;2023-03-01T03:52:40;5.40;99.90
22852;DHT22;11592;45.460;9.240;2023-03-01T03:55:09;5.30;99.90
22852;DHT22;11592;45.460;9.240;2023-03-01T03:57:38;5.20;99.90
22852;DHT22;11592;45.460;9.240;2023-03-01T04:00:06;5.20;99.90
22852;DHT22;11592;45.460;9.240;2023-03-01T04:02:42;5.10;99.90
22852;DHT22;11592;45.460;9.240;2023-03-01T04:05:11;5.00;99.90
22852;DHT22;11592;45.460;9.240;2023-03-01T04:07:38;5.00;99.90
22852;DHT22;11592;45.460;9.240;2023-03-01T04:10:08;5.10;99.90
22852;DHT22;11592;45.460;9.240;2023-03-01T04:12:35;5.00;99.90
22852;DHT22;11592;45.460;9.240;2023-03-01T04:15:03;5.00;99.90
22852;DHT22;11592;45.460;9.240;2023-03-01T04:17:47;5.10;99.90
22852;DHT22;11592;45.460;9.240;2023-03-01T04:20:16;5.00;99.90
22852;DHT22;11592;45.460;9.240;2023-03-01T04:22:44;5.00;99.90
22852;DHT22;11592;45.460;9.240;2023-03-01T04:25:13;5.00;99.90
22852;DHT22;11592;45.460;9.240;2023-03-01T04:27:41;4.90;99.90
22852;DHT22;11592;45.460;9.240;2023-03-01T04:30:08;4.80;99.90
22852;DHT22;11592;45.460;9.240;2023-03-01T04:32:35;4.80;99.90
22852;DHT22;11592;45.460;9.240;2023-03-01T04:35:02;4.90;99.90
22852;DHT22;11592;45.460;9.240;2023-03-01T04:37:29;4.80;99.90
22852;DHT22;11592;45.460;9.240;2023-03-01T04:39:56;4.80;99.90
22852;DHT22;11592;45.460;9.240;2023-03-01T04:42:23;4.70;99.90
22852;DHT22;11592;45.460;9.240;2023-03-01T04:44:49;4.70;99.90
22852;DHT22;11592;45.460;9.240;2023-03-01T04:47:19;4.70;99.90
22852;DHT22;11592;45.460;9.240;2023-03-01T04:49:46;4.60;99.90
22852;DHT22;11592;45.460;9.240;2023-03-01T04:52:12;4.70;99.90
22852;DHT22;11592;45.460;9.240;2023-03-01T04:54:39;4.70;99.90
22852;DHT22;11592;45.460;9.240;2023-03-01T04:57:06;4.60;99.90
22852;DHT22;11592;45.460;9.240;2023-03-01T04:59:33;4.70;99.90
22852;DHT22;11592;45.460;9.240;2023-03-01T05:02:00;4.70;99.90
22852;DHT22;11592;45.460;9.240;2023-03-01T05:04:26;4.70;99.90
22852;DHT22;11592;45.460;9.240;2023-03-01T05:06:53;4.60;99.90
22852;DHT22;11592;45.460;9.240;2023-03-01T05:09:20;4.60;99.90
22852;DHT22;11592;45.460;9.240;2023-03-01T05:11:47;4.60;99.90
22852;DHT22;11592;45.460;9.240;2023-03-01T05:14:14;4.80;99.90
22852;DHT22;11592;45.460;9.240;2023-03-01T05:16:40;4.80;99.90
22852;DHT22;11592;45.460;9.240;2023-03-01T05:19:07;4.80;99.90
22852;DHT22;11592;45.460;9.240;2023-03-01T05:21:43;4.60;99.90
22852;DHT22;11592;45.460;9.240;2023-03-01T05:24:29;4.60;99.90
22852;DHT22;11592;45.460;9.240;2023-03-01T05:26:56;4.60;99.90
22852;DHT22;11592;45.460;9.240;2023-03-01T05:29:24;4.60;99.90
22852;DHT22;11592;45.460;9.240;2023-03-01T05:31:53;4.60;99.90
22852;DHT22;11592;45.460;9.240;2023-03-01T05:34:24;4.60;99.90
22852;DHT22;11592;45.460;9.240;2023-03-01T05:36:53;4.60;99.90
22852;DHT22;11592;45.460;9.240;2023-03-01T05:39:25;4.50;99.90
22852;DHT22;11592;45.460;9.240;2023-03-01T05:41:54;4.40;99.90
22852;DHT22;11592;45.460;9.240;2023-03-01T05:44:21;4.40;99.90
22852;DHT22;11592;45.460;9.240;2023-03-01T05:46:48;4.40;99.90
22852;DHT22;11592;45.460;9.240;2023-03-01T05:49:16;4.40;99.90
22852;DHT22;11592;45.460;9.240;2023-03-01T05:51:47;4.40;99.90
22852;DHT22;11592;45.460;9.240;2023-03-01T05:54:15;4.30;99.90
22852;DHT22;11592;45.460;9.240;2023-03-01T05:56:43;4.40;99.90
22852;DHT22;11592;45.460;9.240;2023-03-01T05:59:10;4.30;99.90
22852;DHT22;11592;45.460;9.240;2023-03-01T06:01:37;4.30;99.90
22852;DHT22;11592;45.460;9.240;2023-03-01T06:04:04;4.40;99.90
22852;DHT22;11592;45.460;9.240;2023-03-01T06:06:35;4.50;99.90
22852;DHT22;11592;45.460;9.240;2023-03-01T06:09:06;4.40;99.90
22852;DHT22;11592;45.460;9.240;2023-03-01T06:11:36;4.50;99.90
22852;DHT22;11592;45.460;9.240;2023-03-01T06:14:04;4.50;99.90
22852;DHT22;11592;45.460;9.240;2023-03-01T06:16:33;4.60;99.90
22852;DHT22;11592;45.460;9.240;2023-03-01T06:18:59;4.60;99.90
22852;DHT22;11592;45.460;9.240;2023-03-01T06:21:26;4.60;99.90
22852;DHT22;11592;45.460;9.240;2023-03-01T06:23:53;4.60;99.90
22852;DHT22;11592;45.460;9.240;2023-03-01T06:26:20;4.70;99.90
22852;DHT22;11592;45.460;9.240;2023-03-01T06:28:47;4.80;99.90
22852;DHT22;11592;45.460;9.240;2023-03-01T06:31:14;4.80;99.90
22852;DHT22;11592;45.460;9.240;2023-03-01T06:33:41;4.90;99.90
22852;DHT22;11592;45.460;9.240;2023-03-01T06:36:08;5.00;99.90
22852;DHT22;11592;45.460;9.240;2023-03-01T06:38:36;5.10;99.90
22852;DHT22;11592;45.460;9.240;2023-03-01T06:41:02;5.30;99.90
22852;DHT22;11592;45.460;9.240;2023-03-01T06:43:29;5.40;99.90
22852;DHT22;11592;45.460;9.240;2023-03-01T06:45:56;5.40;99.90
22852;DHT22;11592;45.460;9.240;2023-03-01T06:48:23;5.50;99.90
22852;DHT22;11592;45.460;9.240;2023-03-01T06:50:49;5.60;99.90
22852;DHT22;11592;45.460;9.240;2023-03-01T06:53:16;5.80;99.90
22852;DHT22;11592;45.460;9.240;2023-03-01T06:55:43;5.80;99.90
22852;DHT22;11592;45.460;9.240;2023-03-01T06:58:09;5.90;99.90
22852;DHT22;11592;45.460;9.240;2023-03-01T07:00:37;6.00;99.90
22852;DHT22;11592;45.460;9.240;2023-03-01T07:03:06;6.10;99.90
22852;DHT22;11592;45.460;9.240;2023-03-01T07:05:33;6.10;99.90
22852;DHT22;11592;45.460;9.240;2023-03-01T07:08:00;6.20;99.90
22852;DHT22;11592;45.460;9.240;2023-03-01T07:10:27;6.20;99.90
22852;DHT22;11592;45.460;9.240;2023-03-01T07:12:57;6.30;99.90
22852;DHT22;11592;45.460;9.240;2023-03-01T07:15:25;6.40;99.90
22852;DHT22;11592;45.460;9.240;2023-03-01T07:17:52;6.40;99.90
22852;DHT22;11592;45.460;9.240;2023-03-01T07:20:20;6.40;99.90
22852;DHT22;11592;45.460;9.240;2023-03-01T07:22:55;6.40;99.90
22852;DHT22;11592;45.460;9.240;2023-03-01T07:25:22;6.40;99.90
22852;DHT22;11592;45.460;9.240;2023-03-01T07:27:50;6.40;99.90
22852;DHT22;11592;45.460;9.240;2023-03-01T07:30:18;6.40;99.90
22852;DHT22;11592;45.460;9.240;2023-03-01T07:32:45;6.50;99.90
22852;DHT22;11592;45.460;9.240;2023-03-01T07:35:12;6.50;99.90
22852;DHT22;11592;45.460;9.240;2023-03-01T07:37:39;6.50;99.90
22852;DHT22;11592;45.460;9.240;2023-03-01T07:40:06;6.60;99.90
22852;DHT22;11592;45.460;9.240;2023-03-01T07:42:33;6.70;99.90
22852;DHT22;11592;45.460;9.240;2023-03-01T07:45:01;6.80;99.90
22852;DHT22;11592;45.460;9.240;2023-03-01T07:47:27;6.90;99.90
22852;DHT22;11592;45.460;9.240;2023-03-01T07:49:54;7.00;99.90
22852;DHT22;11592;45.460;9.240;2023-03-01T07:52:21;7.10;99.90
22852;DHT22;11592;45.460;9.240;2023-03-01T07:54:47;7.20;99.90
22852;DHT22;11592;45.460;9.240;2023-03-01T07:57:14;7.20;99.90
22852;DHT22;11592;45.460;9.240;2023-03-01T07:59:41;7.20;99.90
22852;DHT22;11592;45.460;9.240;2023-03-01T08:02:09;7.30;99.90
22852;DHT22;11592;45.460;9.240;2023-03-01T08:04:36;7.40;99.90
22852;DHT22;11592;45.460;9.240;2023-03-01T08:07:05;7.40;99.90
22852;DHT22;11592;45.460;9.240;2023-03-01T08:09:34;7.50;99.90
22852;DHT22;11592;45.460;9.240;2023-03-01T08:12:01;7.60;99.90
22852;DHT22;11592;45.460;9.240;2023-03-01T08:14:28;7.60;99.90
22852;DHT22;11592;45.460;9.240;2023-03-01T08:16:54;7.70;99.90
22852;DHT22;11592;45.460;9.240;2023-03-01T08:19:21;7.80;99.90
22852;DHT22;11592;45.460;9.240;2023-03-01T08:21:48;7.90;99.90
22852;DHT22;11592;45.460;9.240;2023-03-01T08:24:15;7.80;99.90
22852;DHT22;11592;45.460;9.240;2023-03-01T08:26:42;7.80;99.90
22852;DHT22;11592;45.460;9.240;2023-03-01T08:29:09;7.80;99.90
22852;DHT22;11592;45.460;9.240;2023-03-01T08:31:39;7.70;99.90
22852;DHT22;11592;45.460;9.240;2023-03-01T08:34:09;7.60;99.90
22852;DHT22;11592;45.460;9.240;2023-03-01T08:36:39;7.70;99.90
22852;DHT22;11592;45.460;9.240;2023-03-01T08:39:08;7.80;99.90
22852;DHT22;11592;45.460;9.240;2023-03-01T08:41:35;8.00;99.90
22852;DHT22;11592;45.460;9.240;2023-03-01T08:44:02;8.10;99.90
22852;DHT22;11592;45.460;9.240;2023-03-01T08:46:31;8.20;99.90
22852;DHT22;11592;45.460;9.240;2023-03-01T08:48:59;8.30;99.90
22852;DHT22;11592;45.460;9.240;2023-03-01T08:51:26;8.30;99.90
22852;DHT22;11592;45.460;9.240;2023-03-01T08:53:53;8.30;99.90
22852;DHT22;11592;45.460;9.240;2023-03-01T08:56:20;8.30;99.90
22852;DHT22;11592;45.460;9.240;2023-03-01T08:58:48;8.30;99.90
22852;DHT22;11592;45.460;9.240;2023-03-01T09:01:18;8.40;99.90
22852;DHT22;11592;45.460;9.240;2023-03-01T09:03:45;8.50;99.90
22852;DHT22;11592;45.460;9.240;2023-03-01T09:06:13;8.60;99.90
22852;DHT22;11592;45.460;9.240;2023-03-01T09:08:42;8.70;99.90
22852;DHT22;11592;45.460;9.240;2023-03-01T09:11:12;8.70;99.90
22852;DHT22;11592;45.460;9.240;2023-03-01T09:13:39;8.80;99.90
22852;DHT22;11592;45.460;9.240;2023-03-01T09:16:11;9.00;99.90
22852;DHT22;11592;45.460;9.240;2023-03-01T09:18:38;9.10;99.90
22852;DHT22;11592;45.460;9.240;2023-03-01T09:21:14;9.20;99.90
22852;DHT22;11592;45.460;9.240;2023-03-01T09:23:41;9.10;99.90
22852;DHT22;11592;45.460;9.240;2023-03-01T09:26:11;9.30;99.90
22852;DHT22;11592;45.460;9.240;2023-03-01T09:28:39;9.40;99.90
22852;DHT22;11592;45.460;9.240;2023-03-01T09:31:07;9.60;99.90
22852;DHT22;11592;45.460;9.240;2023-03-01T09:33:34;9.60;99.90
22852;DHT22;11592;45.460;9.240;2023-03-01T09:36:04;9.60;99.90
22852;DHT22;11592;45.460;9.240;2023-03-01T09:38:31;9.70;99.90
22852;DHT22;11592;45.460;9.240;2023-03-01T09:40:59;9.70;99.90
22852;DHT22;11592;45.460;9.240;2023-03-01T09:46:05;9.50;99.90
22852;DHT22;11592;45.460;9.240;2023-03-01T09:48:46;9.50;99.90
22852;DHT22;11592;45.460;9.240;2023-03-01T09:51:22;9.70;99.90
22852;DHT22;11592;45.460;9.240;2023-03-01T09:53:51;9.90;99.90
22852;DHT22;11592;45.460;9.240;2023-03-01T09:56:29;10.10;99.90
22852;DHT22;11592;45.460;9.240;2023-03-01T09:59:20;10.20;99.90
22852;DHT22;11592;45.460;9.240;2023-03-01T10:04:49;10.20;99.90
22852;DHT22;11592;45.460;9.240;2023-03-01T10:10:43;10.50;99.90
22852;DHT22;11592;45.460;9.240;2023-03-01T10:13:20;10.60;99.90
22852;DHT22;11592;45.460;9.240;2023-03-01T10:15:57;10.80;99.90
22852;DHT22;11592;45.460;9.240;2023-03-01T10:18:30;10.70;99.90
22852;DHT22;11592;45.460;9.240;2023-03-01T10:21:01;10.80;99.90
22852;DHT22;11592;45.460;9.240;2023-03-01T10:23:31;11.00;99.90
22852;DHT22;11592;45.460;9.240;2023-03-01T10:34:28;11.90;99.90
22852;DHT22;11592;45.460;9.240;2023-03-01T10:39:36;12.10;99.90
22852;DHT22;11592;45.460;9.240;2023-03-01T10:42:05;12.30;99.90
22852;DHT22;11592;45.460;9.240;2023-03-01T10:44:46;12.50;99.90
22852;DHT22;11592;45.460;9.240;2023-03-01T10:47:17;12.70;99.60
22852;DHT22;11592;45.460;9.240;2023-03-01T10:49:59;12.40;99.70
22852;DHT22;11592;45.460;9.240;2023-03-01T10:52:37;12.30;99.60
22852;DHT22;11592;45.460;9.240;2023-03-01T10:57:39;11.60;99.90
22852;DHT22;11592;45.460;9.240;2023-03-01T11:00:25;11.60;99.90
22852;DHT22;11592;45.460;9.240;2023-03-01T11:05:25;11.20;99.90
22852;DHT22;11592;45.460;9.240;2023-03-01T11:08:00;11.00;99.90
22852;DHT22;11592;45.460;9.240;2023-03-01T11:10:35;10.90;99.90
22852;DHT22;11592;45.460;9.240;2023-03-01T11:13:29;10.80;99.90
22852;DHT22;11592;45.460;9.240;2023-03-01T11:16:05;10.70;99.90
22852;DHT22;11592;45.460;9.240;2023-03-01T11:18:32;10.70;99.90
22852;DHT22;11592;45.460;9.240;2023-03-01T11:21:17;10.70;99.90
22852;DHT22;11592;45.460;9.240;2023-03-01T11:23:45;10.80;99.90
22852;DHT22;11592;45.460;9.240;2023-03-01T11:26:15;10.80;99.90
22852;DHT22;11592;45.460;9.240;2023-03-01T11:28:42;11.00;99.90
22852;DHT22;11592;45.460;9.240;2023-03-01T11:31:12;11.20;99.90
22852;DHT22;11592;45.460;9.240;2023-03-01T11:34:11;11.20;99.90
22852;DHT22;11592;45.460;9.240;2023-03-01T11:36:51;11.30;99.90
22852;DHT22;11592;45.460;9.240;2023-03-01T11:39:41;11.30;99.90
22852;DHT22;11592;45.460;9.240;2023-03-01T11:42:18;11.20;99.90
22852;DHT22;11592;45.460;9.240;2023-03-01T11:44:48;11.30;99.90
22852;DHT22;11592;45.460;9.240;2023-03-01T11:50:02;11.50;99.90
22852;DHT22;11592;45.460;9.240;2023-03-01T12:03:56;10.90;99.90
22852;DHT22;11592;45.460;9.240;2023-03-01T12:06:57;10.80;99.90
22852;DHT22;11592;45.460;9.240;2023-03-01T12:15:02;11.30;99.90
22852;DHT22;11592;45.460;9.240;2023-03-01T12:20:11;11.30;99.90
22852;DHT22;11592;45.460;9.240;2023-03-01T12:37:22;11.40;99.90
22852;DHT22;11592;45.460;9.240;2023-03-01T12:40:20;11.30;99.90
22852;DHT22;11592;45.460;9.240;2023-03-01T12:42:58;11.30;99.90
22852;DHT22;11592;45.460;9.240;2023-03-01T12:45:49;11.40;99.90
22852;DHT22;11592;45.460;9.240;2023-03-01T12:51:33;11.30;99.90
22852;DHT22;11592;45.460;9.240;2023-03-01T12:54:26;11.30;99.90
22852;DHT22;11592;45.460;9.240;2023-03-01T12:56:54;11.10;99.90
22852;DHT22;11592;45.460;9.240;2023-03-01T13:02:42;11.00;99.90
22852;DHT22;11592;45.460;9.240;2023-03-01T13:15:37;10.70;99.90
22852;DHT22;11592;45.460;9.240;2023-03-01T13:26:13;10.90;99.90
22852;DHT22;11592;45.460;9.240;2023-03-01T13:28:52;11.10;99.90
22852;DHT22;11592;45.460;9.240;2023-03-01T13:33:53;11.20;99.90
22852;DHT22;11592;45.460;9.240;2023-03-01T13:39:04;11.30;99.90
22852;DHT22;11592;45.460;9.240;2023-03-01T13:44:37;11.00;99.90
22852;DHT22;11592;45.460;9.240;2023-03-01T13:47:16;10.90;99.90
22852;DHT22;11592;45.460;9.240;2023-03-01T13:49:49;10.90;99.90
22852;DHT22;11592;45.460;9.240;2023-03-01T13:55:43;10.90;99.90
22852;DHT22;11592;45.460;9.240;2023-03-01T13:58:53;10.70;99.90
22852;DHT22;11592;45.460;9.240;2023-03-01T14:01:26;10.70;99.90
22852;DHT22;11592;45.460;9.240;2023-03-01T14:03:53;10.80;99.90
22852;DHT22;11592;45.460;9.240;2023-03-01T14:06:23;10.90;99.90
22852;DHT22;11592;45.460;9.240;2023-03-01T14:09:00;10.70;99.90
22852;DHT22;11592;45.460;9.240;2023-03-01T14:17:08;10.60;99.90
22852;DHT22;11592;45.460;9.240;2023-03-01T14:19:36;10.60;99.90
22852;DHT22;11592;45.460;9.240;2023-03-01T14:22:13;10.80;99.90
22852;DHT22;11592;45.460;9.240;2023-03-01T14:24:51;10.60;99.90
22852;DHT22;11592;45.460;9.240;2023-03-01T14:27:19;10.40;99.90
22852;DHT22;11592;45.460;9.240;2023-03-01T14:30:00;10.40;99.90
22852;DHT22;11592;45.460;9.240;2023-03-01T14:32:30;10.20;99.90
22852;DHT22;11592;45.460;9.240;2023-03-01T14:34:59;10.20;99.90
22852;DHT22;11592;45.460;9.240;2023-03-01T14:37:32;10.40;99.90
22852;DHT22;11592;45.460;9.240;2023-03-01T14:40:00;10.40;99.90
22852;DHT22;11592;45.460;9.240;2023-03-01T14:42:30;10.50;99.90
22852;DHT22;11592;45.460;9.240;2023-03-01T14:45:00;10.40;99.90
22852;DHT22;11592;45.460;9.240;2023-03-01T14:47:35;10.20;99.90
22852;DHT22;11592;45.460;9.240;2023-03-01T14:50:21;10.10;99.90
22852;DHT22;11592;45.460;9.240;2023-03-01T14:52:53;10.00;99.90
22852;DHT22;11592;45.460;9.240;2023-03-01T14:55:35;9.90;99.90
22852;DHT22;11592;45.460;9.240;2023-03-01T14:58:05;10.00;99.90
22852;DHT22;11592;45.460;9.240;2023-03-01T15:00:34;10.10;99.90
22852;DHT22;11592;45.460;9.240;2023-03-01T15:03:07;10.20;99.90
22852;DHT22;11592;45.460;9.240;2023-03-01T15:05:42;10.20;99.90
22852;DHT22;11592;45.460;9.240;2023-03-01T15:08:19;10.20;99.90
22852;DHT22;11592;45.460;9.240;2023-03-01T15:11:01;10.10;99.90
22852;DHT22;11592;45.460;9.240;2023-03-01T15:13:31;10.00;99.90
22852;DHT22;11592;45.460;9.240;2023-03-01T15:16:07;9.90;99.90
22852;DHT22;11592;45.460;9.240;2023-03-01T15:18:36;9.80;99.90
22852;DHT22;11592;45.460;9.240;2023-03-01T15:21:21;10.00;99.90
22852;DHT22;11592;45.460;9.240;2023-03-01T15:24:13;10.10;99.90
22852;DHT22;11592;45.460;9.240;2023-03-01T15:26:58;10.20;99.90
22852;DHT22;11592;45.460;9.240;2023-03-01T15:29:29;10.10;99.90
22852;DHT22;11592;45.460;9.240;2023-03-01T15:32:28;10.10;99.90
22852;DHT22;11592;45.460;9.240;2023-03-01T15:34:56;10.10;99.90
22852;DHT22;11592;45.460;9.240;2023-03-01T15:40:25;9.80;99.90
22852;DHT22;11592;45.460;9.240;2023-03-01T15:45:27;9.60;99.90
22852;DHT22;11592;45.460;9.240;2023-03-01T15:48:02;9.50;99.90
22852;DHT22;11592;45.460;9.240;2023-03-01T15:50:34;9.60;99.90
22852;DHT22;11592;45.460;9.240;2023-03-01T15:53:10;9.50;99.90
22852;DHT22;11592;45.460;9.240;2023-03-01T15:55:38;9.40;99.90
22852;DHT22;11592;45.460;9.240;2023-03-01T15:58:17;9.50;99.90
22852;DHT22;11592;45.460;9.240;2023-03-01T16:00:46;9.70;99.90
22852;DHT22;11592;45.460;9.240;2023-03-01T16:03:27;9.80;99.90
22852;DHT22;11592;45.460;9.240;2023-03-01T16:05:54;9.70;99.90
22852;DHT22;11592;45.460;9.240;2023-03-01T16:08:21;9.90;99.90
22852;DHT22;11592;45.460;9.240;2023-03-01T16:10:49;9.90;99.90
22852;DHT22;11592;45.460;9.240;2023-03-01T16:13:17;10.00;99.90
22852;DHT22;11592;45.460;9.240;2023-03-01T16:15:44;10.10;99.90
22852;DHT22;11592;45.460;9.240;2023-03-01T16:18:11;10.10;99.90
22852;DHT22;11592;45.460;9.240;2023-03-01T16:20:39;10.10;99.90
22852;DHT22;11592;45.460;9.240;2023-03-01T16:23:08;10.20;99.90
22852;DHT22;11592;45.460;9.240;2023-03-01T16:25:36;10.20;99.90
22852;DHT22;11592;45.460;9.240;2023-03-01T16:28:04;10.10;99.90
22852;DHT22;11592;45.460;9.240;2023-03-01T16:30:39;10.10;99.90
22852;DHT22;11592;45.460;9.240;2023-03-01T16:33:07;10.20;99.90
22852;DHT22;11592;45.460;9.240;2023-03-01T16:35:55;10.10;99.90
22852;DHT22;11592;45.460;9.240;2023-03-01T16:38:22;10.10;99.90
22852;DHT22;11592;45.460;9.240;2023-03-01T16:40:50;10.20;99.90
22852;DHT22;11592;45.460;9.240;2023-03-01T16:43:17;10.20;99.90
22852;DHT22;11592;45.460;9.240;2023-03-01T16:45:44;10.10;99.90
22852;DHT22;11592;45.460;9.240;2023-03-01T16:48:13;9.90;99.90
22852;DHT22;11592;45.460;9.240;2023-03-01T16:50:40;9.70;99.90
22852;DHT22;11592;45.460;9.240;2023-03-01T16:53:07;9.60;99.90
22852;DHT22;11592;45.460;9.240;2023-03-01T16:55:33;9.40;99.90
22852;DHT22;11592;45.460;9.240;2023-03-01T16:58:01;9.30;99.90
22852;DHT22;11592;45.460;9.240;2023-03-01T17:00:28;9.10;99.90
22852;DHT22;11592;45.460;9.240;2023-03-01T17:02:55;9.00;99.90
22852;DHT22;11592;45.460;9.240;2023-03-01T17:05:22;9.10;99.90
22852;DHT22;11592;45.460;9.240;2023-03-01T17:07:50;9.20;99.90
22852;DHT22;11592;45.460;9.240;2023-03-01T17:10:17;9.20;99.90
22852;DHT22;11592;45.460;9.240;2023-03-01T17:12:48;9.20;99.90
22852;DHT22;11592;45.460;9.240;2023-03-01T17:15:14;9.10;99.90
22852;DHT22;11592;45.460;9.240;2023-03-01T17:17:41;9.10;99.90
22852;DHT22;11592;45.460;9.240;2023-03-01T17:20:08;9.00;99.90
22852;DHT22;11592;45.460;9.240;2023-03-01T17:22:37;9.00;99.90
22852;DHT22;11592;45.460;9.240;2023-03-01T17:25:08;8.90;99.90
22852;DHT22;11592;45.460;9.240;2023-03-01T17:27:36;8.70;99.90
22852;DHT22;11592;45.460;9.240;2023-03-01T17:30:05;8.70;99.90
22852;DHT22;11592;45.460;9.240;2023-03-01T17:32:31;8.60;99.90
22852;DHT22;11592;45.460;9.240;2023-03-01T17:34:58;8.50;99.90
22852;DHT22;11592;45.460;9.240;2023-03-01T17:37:25;8.40;99.90
22852;DHT22;11592;45.460;9.240;2023-03-01T17:39:52;8.30;99.90
22852;DHT22;11592;45.460;9.240;2023-03-01T17:42:19;8.40;99.90
22852;DHT22;11592;45.460;9.240;2023-03-01T17:44:46;8.40;99.90
22852;DHT22;11592;45.460;9.240;2023-03-01T17:47:13;8.40;99.90
22852;DHT22;11592;45.460;9.240;2023-03-01T17:49:39;8.30;99.90
22852;DHT22;11592;45.460;9.240;2023-03-01T17:52:06;8.20;99.90
22852;DHT22;11592;45.460;9.240;2023-03-01T17:54:33;8.20;99.90
22852;DHT22;11592;45.460;9.240;2023-03-01T17:57:00;8.10;99.90
22852;DHT22;11592;45.460;9.240;2023-03-01T17:59:27;8.00;99.90
22852;DHT22;11592;45.460;9.240;2023-03-01T18:01:59;7.90;99.90
22852;DHT22;11592;45.460;9.240;2023-03-01T18:04:27;7.80;99.90
22852;DHT22;11592;45.460;9.240;2023-03-01T18:06:54;7.70;99.90
22852;DHT22;11592;45.460;9.240;2023-03-01T18:09:21;7.70;99.90